createdAt,value
2022-11-05T00:00:17.265Z,100
2022-11-05T00:10:18.941Z,100
2022-11-05T00:20:21.189Z,100
2022-11-05T00:40:25.254Z,100
2022-11-05T00:50:27.747Z,100
2022-11-05T01:00:30.202Z,100
2022-11-05T01:10:32.080Z,100
2022-11-05T01:20:34.000Z,100
2022-11-05T01:30:36.353Z,100
2022-11-05T01:40:38.515Z,100
2022-11-05T01:50:40.649Z,100
2022-11-05T02:00:43.328Z,100
2022-11-05T02:10:45.075Z,100
2022-11-05T02:20:51.935Z,100
2022-11-05T02:30:49.531Z,100
2022-11-05T02:40:52.194Z,100
2022-11-05T02:50:54.277Z,100
2022-11-05T03:00:56.481Z,100
2022-11-05T03:10:58.614Z,100
2022-11-05T03:21:00.856Z,100
2022-11-05T03:31:03.175Z,100
2022-11-05T03:41:05.008Z,100
2022-11-05T03:51:06.772Z,100
2022-11-05T04:01:09.314Z,100
2022-11-05T04:11:11.025Z,100
2022-11-05T04:21:12.959Z,100
2022-11-05T04:31:15.260Z,100
2022-11-05T04:41:17.459Z,100
2022-11-05T04:51:19.329Z,100
2022-11-05T05:01:21.599Z,100
2022-11-05T05:11:23.150Z,100
2022-11-05T05:21:25.139Z,100
2022-11-05T05:24:19.649Z,100
2022-11-05T05:31:37.510Z,100
2022-11-05T05:41:40.099Z,100
2022-11-05T05:51:41.819Z,100
2022-11-05T06:01:43.979Z,100
2022-11-05T06:11:46.172Z,100
2022-11-05T06:21:48.612Z,100
2022-11-05T06:31:51.114Z,100
2022-11-05T06:42:16.994Z,100
2022-11-05T06:51:55.477Z,100
2022-11-05T07:01:57.969Z,100
2022-11-05T07:12:00.005Z,100
2022-11-05T07:22:01.773Z,100
2022-11-05T07:32:04.401Z,100
2022-11-05T07:42:06.902Z,100
2022-11-05T07:52:09.473Z,100
2022-11-05T08:02:11.931Z,100
2022-11-05T08:12:14.135Z,100
2022-11-05T08:22:16.212Z,100
2022-11-05T08:32:17.965Z,100
2022-11-05T08:42:20.346Z,100
2022-11-05T08:52:22.412Z,100
2022-11-05T09:02:24.368Z,100
2022-11-05T09:12:26.768Z,100
2022-11-05T09:22:29.082Z,100
2022-11-05T09:32:31.563Z,100
2022-11-05T09:42:33.884Z,97
2022-11-05T09:52:36.065Z,99
2022-11-05T10:02:38.626Z,96
2022-11-05T10:12:40.391Z,93
2022-11-05T10:22:46.592Z,90
2022-11-05T10:32:45.118Z,86
2022-11-05T10:42:47.086Z,85
2022-11-05T10:52:48.993Z,78
2022-11-05T11:02:51.387Z,75
2022-11-05T11:12:53.619Z,76
2022-11-05T11:22:55.393Z,75
2022-11-05T11:32:57.945Z,75
2022-11-05T11:42:59.697Z,74
2022-11-05T11:53:01.695Z,74
2022-11-05T12:03:03.900Z,73
2022-11-05T12:13:05.970Z,72
2022-11-05T12:23:08.518Z,71
2022-11-05T12:33:10.837Z,73
2022-11-05T12:43:13.351Z,74
2022-11-05T12:53:15.283Z,77
2022-11-05T13:13:19.339Z,80
2022-11-05T13:23:21.760Z,80
2022-11-05T13:53:29.330Z,78
2022-11-05T14:03:31.261Z,78
2022-11-05T14:13:33.138Z,77
2022-11-05T14:23:35.664Z,78
2022-11-05T15:03:46.175Z,78
2022-11-05T15:54:15.997Z,80
2022-11-05T16:44:05.121Z,82
2022-11-05T17:24:14.075Z,83
2022-11-05T17:34:16.234Z,82
2022-11-05T18:24:27.054Z,78
2022-11-05T18:54:33.677Z,80
2022-11-05T19:04:36.277Z,80
2022-11-05T19:14:38.871Z,81
2022-11-05T19:24:41.232Z,82
2022-11-05T19:34:43.452Z,82
2022-11-05T19:54:47.411Z,84
2022-11-05T20:14:52.020Z,85
2022-11-05T20:34:56.732Z,85
2022-11-05T20:44:58.914Z,85
2022-11-05T20:55:00.618Z,85
2022-11-05T21:05:03.082Z,86
2022-11-05T21:15:04.993Z,86
2022-11-05T21:25:07.168Z,87
2022-11-05T21:45:11.220Z,86
2022-11-05T21:55:13.786Z,86
2022-11-05T22:05:15.744Z,85
2022-11-05T22:15:17.664Z,85
2022-11-05T22:25:19.731Z,85
2022-11-05T22:45:24.318Z,85
2022-11-05T22:55:26.312Z,85
2022-11-05T23:05:28.902Z,87
2022-11-05T23:15:31.395Z,87
2022-11-05T23:25:33.716Z,88
2022-11-05T23:45:38.430Z,89
2022-11-05T23:55:40.841Z,90
